createdAt,value
2022-09-06T00:01:12.472Z,9.63
2022-09-06T00:03:39.818Z,9.73
2022-09-06T00:06:15.597Z,9.70
2022-09-06T00:08:44.720Z,9.67
2022-09-06T00:11:12.471Z,9.69
2022-09-06T00:13:40.093Z,9.74
2022-09-06T00:16:12.011Z,9.74
2022-09-06T00:18:39.321Z,9.69
2022-09-06T00:21:18.415Z,9.69
2022-09-06T00:23:45.424Z,9.67
2022-09-06T00:26:12.574Z,9.71
2022-09-06T00:28:39.708Z,9.76
2022-09-06T00:31:18.429Z,9.67
2022-09-06T00:33:45.916Z,9.75
2022-09-06T00:36:13.645Z,9.75
2022-09-06T00:38:40.917Z,9.64
2022-09-06T00:41:10.056Z,9.71
2022-09-06T00:43:37.697Z,9.74
2022-09-06T00:46:06.975Z,9.70
2022-09-06T00:48:35.634Z,9.77
2022-09-06T00:51:06.050Z,9.80
2022-09-06T00:53:33.259Z,9.76
2022-09-06T00:56:01.133Z,9.75
2022-09-06T00:58:28.650Z,9.72
2022-09-06T01:00:55.729Z,9.65
2022-09-06T01:03:25.083Z,9.69
2022-09-06T01:06:14.940Z,9.69
2022-09-06T01:09:43.429Z,9.71
2022-09-06T01:12:13.240Z,9.66
2022-09-06T01:15:06.054Z,9.48
2022-09-06T01:17:35.905Z,9.36
2022-09-06T01:20:36.723Z,9.39
2022-09-06T01:23:28.865Z,9.46
2022-09-06T01:26:14.364Z,9.41
2022-09-06T01:28:46.376Z,9.46
2022-09-06T01:31:25.815Z,9.47
2022-09-06T01:34:13.727Z,9.51
2022-09-06T01:37:10.439Z,9.43
2022-09-06T01:39:39.924Z,9.45
2022-09-06T01:42:15.265Z,9.47
2022-09-06T01:44:52.670Z,9.48
2022-09-06T01:47:48.879Z,9.50
2022-09-06T01:50:46.481Z,9.48
2022-09-06T01:53:32.091Z,9.27
2022-09-06T01:56:10.090Z,9.34
2022-09-06T01:59:09.707Z,9.29
2022-09-06T02:02:03.853Z,9.27
2022-09-06T02:04:49.089Z,9.29
2022-09-06T02:07:23.947Z,9.33
2022-09-06T02:09:59.893Z,9.31
2022-09-06T02:12:29.959Z,9.28
2022-09-06T02:15:19.850Z,9.23
2022-09-06T02:17:56.481Z,9.14
2022-09-06T02:20:26.979Z,9.10
2022-09-06T02:22:57.844Z,9.07
2022-09-06T02:25:37.999Z,9.04
2022-09-06T02:28:07.635Z,9.08
2022-09-06T02:30:47.822Z,9.16
2022-09-06T02:33:19.765Z,9.21
2022-09-06T02:35:49.988Z,9.28
2022-09-06T02:38:18.492Z,9.25
2022-09-06T02:40:46.777Z,9.33
2022-09-06T02:43:13.785Z,9.34
2022-09-06T02:45:40.827Z,9.35
2022-09-06T02:48:07.863Z,9.37
2022-09-06T02:50:34.988Z,9.36
2022-09-06T02:53:02.773Z,9.36
2022-09-06T02:55:30.069Z,9.36
2022-09-06T02:57:57.052Z,9.40
2022-09-06T03:00:24.632Z,9.43
2022-09-06T03:02:51.661Z,9.43
2022-09-06T03:05:18.846Z,9.48
2022-09-06T03:07:45.913Z,9.47
2022-09-06T03:10:12.909Z,9.47
2022-09-06T03:12:39.894Z,9.53
2022-09-06T03:15:07.958Z,9.56
2022-09-06T03:17:34.959Z,9.48
2022-09-06T03:20:02.142Z,9.53
2022-09-06T03:22:30.436Z,9.53
2022-09-06T03:24:57.691Z,9.56
2022-09-06T03:27:24.813Z,9.49
2022-09-06T03:29:51.777Z,9.42
2022-09-06T03:32:18.862Z,9.41
2022-09-06T03:34:45.869Z,9.45
2022-09-06T03:37:12.798Z,9.49
2022-09-06T03:39:39.853Z,9.53
2022-09-06T03:42:07.047Z,9.54
2022-09-06T03:44:34.207Z,9.58
2022-09-06T03:47:01.225Z,9.55
2022-09-06T03:49:28.253Z,9.52
2022-09-06T03:51:55.471Z,9.59
2022-09-06T03:54:22.399Z,9.64
2022-09-06T03:56:49.401Z,9.69
2022-09-06T03:59:16.467Z,9.70
2022-09-06T04:01:43.472Z,9.77
2022-09-06T04:04:10.480Z,9.72
2022-09-06T04:06:37.529Z,9.72
2022-09-06T04:09:04.543Z,9.74
2022-09-06T04:11:31.509Z,9.74
2022-09-06T04:13:58.428Z,9.74
2022-09-06T04:16:25.525Z,9.81
2022-09-06T04:18:52.559Z,9.83
2022-09-06T04:21:19.725Z,9.75
2022-09-06T04:23:46.688Z,9.82
2022-09-06T04:26:13.665Z,9.86
2022-09-06T04:28:40.774Z,9.87
2022-09-06T04:31:07.723Z,9.90
2022-09-06T04:33:37.267Z,9.91
2022-09-06T04:36:08.931Z,9.93
2022-09-06T04:38:39.589Z,9.95
2022-09-06T04:41:07.291Z,10.01
2022-09-06T04:43:34.312Z,10.02
2022-09-06T04:46:06.754Z,10.00
2022-09-06T04:48:34.037Z,10.03
2022-09-06T04:51:01.043Z,10.06
2022-09-06T04:53:28.155Z,10.08
2022-09-06T04:55:58.122Z,10.08
2022-09-06T04:58:25.263Z,10.16
2022-09-06T05:00:52.349Z,10.33
2022-09-06T05:03:19.382Z,10.44
2022-09-06T05:05:46.463Z,10.47
2022-09-06T05:08:13.648Z,10.62
2022-09-06T05:10:40.869Z,10.81
2022-09-06T05:13:07.952Z,10.86
2022-09-06T05:15:34.939Z,10.85
2022-09-06T05:18:04.204Z,10.92
2022-09-06T05:20:32.373Z,10.97
2022-09-06T05:22:59.553Z,11.01
2022-09-06T05:25:26.633Z,10.88
2022-09-06T05:27:53.758Z,10.78
2022-09-06T05:30:20.812Z,10.74
2022-09-06T05:32:47.776Z,10.58
2022-09-06T05:35:15.072Z,10.64
2022-09-06T05:37:42.185Z,10.60
2022-09-06T05:40:09.655Z,10.53
2022-09-06T05:42:37.946Z,10.59
2022-09-06T05:45:06.801Z,10.49
2022-09-06T05:47:35.527Z,10.45
2022-09-06T05:50:03.773Z,10.30
2022-09-06T05:52:31.329Z,10.31
2022-09-06T05:55:02.239Z,10.21
2022-09-06T05:57:31.484Z,10.22
2022-09-06T05:59:58.616Z,10.25
2022-09-06T06:02:26.264Z,10.36
2022-09-06T06:04:54.729Z,10.40
2022-09-06T06:07:21.732Z,10.44
2022-09-06T06:09:48.698Z,10.44
2022-09-06T06:12:15.781Z,10.52
2022-09-06T06:14:42.747Z,10.59
2022-09-06T06:17:09.743Z,10.67
2022-09-06T06:19:37.584Z,10.74
2022-09-06T06:22:04.653Z,10.85
2022-09-06T06:24:31.661Z,11.02
2022-09-06T06:26:58.715Z,11.17
2022-09-06T06:29:25.889Z,11.41
2022-09-06T06:31:52.945Z,11.33
2022-09-06T06:34:22.027Z,11.45
2022-09-06T06:36:49.286Z,11.66
2022-09-06T06:39:16.285Z,11.83
2022-09-06T06:41:43.292Z,12.01
2022-09-06T06:44:28.541Z,12.02
2022-09-06T06:46:58.088Z,12.17
2022-09-06T06:49:25.404Z,12.09
2022-09-06T06:51:52.473Z,12.16
2022-09-06T06:54:20.054Z,12.34
2022-09-06T06:56:47.210Z,12.53
2022-09-06T06:59:14.642Z,12.54
2022-09-06T07:01:41.810Z,12.33
2022-09-06T07:04:10.615Z,12.21
2022-09-06T07:12:26.615Z,12.78
2022-09-06T07:14:53.746Z,12.59
2022-09-06T07:17:20.694Z,12.89
2022-09-06T07:22:34.552Z,12.70
2022-09-06T07:25:02.227Z,13.24
2022-09-06T07:30:14.414Z,16.45
2022-09-06T07:32:41.525Z,17.46
2022-09-06T07:35:09.116Z,18.16
2022-09-06T07:37:36.157Z,18.76
2022-09-06T07:40:04.213Z,17.51
2022-09-06T07:42:36.265Z,16.85
2022-09-06T07:45:05.254Z,16.34
2022-09-06T07:53:15.684Z,15.35
2022-09-06T07:55:46.621Z,15.37
2022-09-06T07:58:14.445Z,15.52
2022-09-06T08:00:41.724Z,15.19
2022-09-06T08:03:09.503Z,14.94
2022-09-06T08:11:10.777Z,14.04
2022-09-06T08:13:38.766Z,13.93
2022-09-06T08:16:08.095Z,14.61
2022-09-06T08:18:36.369Z,14.42
2022-09-06T08:21:25.813Z,14.36
2022-09-06T08:23:56.191Z,14.68
2022-09-06T08:26:24.613Z,14.65
2022-09-06T08:29:00.419Z,14.54
2022-09-06T08:31:29.670Z,14.99
2022-09-06T08:33:57.706Z,16.25
2022-09-06T08:36:27.349Z,17.07
2022-09-06T08:38:54.363Z,16.75
2022-09-06T08:41:38.165Z,16.34
2022-09-06T08:47:04.624Z,15.18
2022-09-06T08:49:45.111Z,14.92
2022-09-06T08:52:21.286Z,14.76
2022-09-06T08:55:02.127Z,14.68
2022-09-06T08:57:52.179Z,15.09
2022-09-06T09:00:20.240Z,15.97
2022-09-06T09:02:53.398Z,16.76
2022-09-06T09:05:26.211Z,16.81
2022-09-06T09:08:43.146Z,16.66
2022-09-06T09:11:18.966Z,16.37
2022-09-06T09:14:02.150Z,16.94
2022-09-06T09:16:29.205Z,18.23
2022-09-06T09:19:00.132Z,18.29
2022-09-06T09:21:30.849Z,18.05
2022-09-06T09:24:04.264Z,17.21
2022-09-06T09:26:37.235Z,16.77
2022-09-06T09:29:05.460Z,15.84
2022-09-06T09:31:53.387Z,15.54
2022-09-06T09:34:40.605Z,15.19
2022-09-06T09:40:05.230Z,14.98
2022-09-06T09:42:35.891Z,14.65
2022-09-06T09:45:23.099Z,14.42
2022-09-06T09:47:50.274Z,14.24
2022-09-06T09:50:33.673Z,14.02
2022-09-06T09:53:12.517Z,13.88
2022-09-06T09:55:40.320Z,13.69
2022-09-06T09:58:19.056Z,13.67
2022-09-06T10:00:46.063Z,13.57
2022-09-06T10:03:28.961Z,13.59
2022-09-06T10:06:02.645Z,13.48
2022-09-06T10:08:34.108Z,13.36
2022-09-06T10:11:01.315Z,13.30
2022-09-06T10:13:30.398Z,13.44
2022-09-06T10:15:59.782Z,13.23
2022-09-06T10:18:35.767Z,13.27
2022-09-06T10:21:06.721Z,13.05
2022-09-06T10:26:40.882Z,13.48
2022-09-06T10:29:11.787Z,14.08
2022-09-06T10:32:03.899Z,14.35
2022-09-06T10:34:40.199Z,14.44
2022-09-06T10:37:37.587Z,14.29
2022-09-06T10:40:10.344Z,14.46
2022-09-06T10:42:48.091Z,14.57
2022-09-06T10:45:29.805Z,14.15
2022-09-06T10:48:30.521Z,14.06
2022-09-06T10:51:06.334Z,13.74
2022-09-06T10:53:54.032Z,13.52
2022-09-06T10:56:38.048Z,13.53
2022-09-06T10:59:38.916Z,13.32
2022-09-06T11:02:29.686Z,13.47
2022-09-06T11:11:11.428Z,13.74
2022-09-06T11:13:38.607Z,13.84
2022-09-06T11:16:20.812Z,13.84
2022-09-06T11:18:50.740Z,13.54
2022-09-06T11:21:36.109Z,13.75
2022-09-06T11:24:17.040Z,13.80
2022-09-06T11:27:06.654Z,13.89
2022-09-06T11:29:35.309Z,13.78
2022-09-06T11:32:21.083Z,13.66
2022-09-06T11:34:55.127Z,13.50
2022-09-06T11:37:44.047Z,13.52
2022-09-06T11:40:38.356Z,13.59
2022-09-06T11:43:05.229Z,13.86
2022-09-06T11:45:52.813Z,14.28
2022-09-06T11:48:26.719Z,14.64
2022-09-06T11:50:53.678Z,15.50
2022-09-06T11:53:27.729Z,15.86
2022-09-06T11:56:00.560Z,17.06
2022-09-06T11:58:42.497Z,17.21
2022-09-06T12:01:12.496Z,16.93
2022-09-06T12:06:42.962Z,16.24
2022-09-06T12:09:34.060Z,16.14
2022-09-06T12:12:02.660Z,16.01
2022-09-06T12:14:29.629Z,15.79
2022-09-06T12:16:59.562Z,15.67
2022-09-06T12:19:54.411Z,15.48
2022-09-06T12:22:47.140Z,15.13
2022-09-06T12:25:35.927Z,14.95
2022-09-06T12:28:05.600Z,14.62
2022-09-06T12:30:37.506Z,14.47
2022-09-06T12:33:22.610Z,14.35
2022-09-06T12:35:57.401Z,14.27
2022-09-06T12:38:26.051Z,14.06
2022-09-06T12:40:58.511Z,13.85
2022-09-06T12:43:27.142Z,13.66
2022-09-06T12:45:54.291Z,13.54
2022-09-06T12:48:29.521Z,13.41
2022-09-06T12:51:02.639Z,13.29
2022-09-06T12:53:31.650Z,13.10
2022-09-06T12:56:12.530Z,13.03
2022-09-06T12:58:40.157Z,12.91
2022-09-06T13:01:15.682Z,12.77
2022-09-06T13:04:05.211Z,12.80
2022-09-06T13:06:37.445Z,12.84
2022-09-06T13:09:08.271Z,12.94
2022-09-06T13:11:38.912Z,12.99
2022-09-06T13:14:17.582Z,12.98
2022-09-06T13:16:48.108Z,12.97
2022-09-06T13:19:29.868Z,12.94
2022-09-06T13:21:58.543Z,12.91
2022-09-06T13:24:25.494Z,12.93
2022-09-06T13:26:53.432Z,12.98
2022-09-06T13:29:31.099Z,12.99
2022-09-06T13:32:01.065Z,13.03
2022-09-06T13:34:30.857Z,13.08
2022-09-06T13:37:07.211Z,13.19
2022-09-06T13:39:38.287Z,13.28
2022-09-06T13:42:07.881Z,13.19
2022-09-06T13:44:37.108Z,13.16
2022-09-06T13:47:04.798Z,12.98
2022-09-06T13:49:32.952Z,12.59
2022-09-06T13:52:02.719Z,12.44
2022-09-06T13:54:31.158Z,12.34
2022-09-06T13:56:58.322Z,12.31
2022-09-06T13:59:25.643Z,12.31
2022-09-06T14:02:07.783Z,12.25
2022-09-06T14:04:36.371Z,12.29
2022-09-06T14:07:05.252Z,12.25
2022-09-06T14:09:32.790Z,12.25
2022-09-06T14:12:00.837Z,12.15
2022-09-06T14:14:27.902Z,12.20
2022-09-06T14:16:54.965Z,12.22
2022-09-06T14:19:22.000Z,12.24
2022-09-06T14:21:49.090Z,12.23
2022-09-06T14:24:16.230Z,12.26
2022-09-06T14:26:43.207Z,12.33
2022-09-06T14:29:10.194Z,12.35
2022-09-06T14:31:37.218Z,12.36
2022-09-06T14:34:04.272Z,12.38
2022-09-06T14:36:32.862Z,12.45
2022-09-06T14:39:00.694Z,12.52
2022-09-06T14:41:27.914Z,12.58
2022-09-06T14:43:57.373Z,12.67
2022-09-06T14:46:26.855Z,12.72
2022-09-06T14:49:01.981Z,12.77
2022-09-06T14:51:30.281Z,12.78
2022-09-06T14:54:00.321Z,12.75
2022-09-06T14:56:27.439Z,12.68
2022-09-06T14:58:57.550Z,12.61
2022-09-06T15:01:35.757Z,12.55
2022-09-06T15:04:08.042Z,12.48
2022-09-06T15:06:37.185Z,12.30
2022-09-06T15:09:05.467Z,12.27
2022-09-06T15:11:40.537Z,12.19
2022-09-06T15:14:14.382Z,12.19
2022-09-06T15:16:42.092Z,12.15
2022-09-06T15:19:09.504Z,12.20
2022-09-06T15:21:36.639Z,12.16
2022-09-06T15:24:06.450Z,12.19
2022-09-06T15:26:36.794Z,12.22
2022-09-06T15:29:04.063Z,12.21
2022-09-06T15:31:34.332Z,12.15
2022-09-06T15:34:02.919Z,12.14
2022-09-06T15:36:30.338Z,12.07
2022-09-06T15:39:01.115Z,12.06
2022-09-06T15:41:30.996Z,12.02
2022-09-06T15:44:00.743Z,11.99
2022-09-06T15:46:38.487Z,11.98
2022-09-06T15:49:11.279Z,11.88
2022-09-06T15:51:40.503Z,11.77
2022-09-06T15:54:07.917Z,11.69
2022-09-06T15:56:35.034Z,11.76
2022-09-06T15:59:02.002Z,11.71
2022-09-06T16:01:29.026Z,11.71
2022-09-06T16:04:05.838Z,11.73
2022-09-06T16:06:39.781Z,11.72
2022-09-06T16:09:14.331Z,11.67
2022-09-06T16:11:42.039Z,11.64
2022-09-06T16:14:12.672Z,11.50
2022-09-06T16:16:41.894Z,11.43
2022-09-06T16:19:10.562Z,11.39
2022-09-06T16:21:40.485Z,11.31
2022-09-06T16:24:09.741Z,11.29
2022-09-06T16:26:38.889Z,11.14
2022-09-06T16:29:07.805Z,11.18
2022-09-06T16:31:39.330Z,11.07
2022-09-06T16:34:11.778Z,11.06
2022-09-06T16:36:39.328Z,11.05
2022-09-06T16:39:07.674Z,11.02
2022-09-06T16:41:46.325Z,11.06
2022-09-06T16:44:18.574Z,11.05
2022-09-06T16:46:47.335Z,11.07
2022-09-06T16:49:17.091Z,11.08
2022-09-06T16:51:45.944Z,11.10
2022-09-06T16:54:14.132Z,11.07
2022-09-06T16:56:41.637Z,11.06
2022-09-06T16:59:10.713Z,11.03
2022-09-06T17:01:41.665Z,11.01
2022-09-06T17:04:09.979Z,10.96
2022-09-06T17:06:44.518Z,10.86
2022-09-06T17:09:19.118Z,10.92
2022-09-06T17:11:50.110Z,10.90
2022-09-06T17:14:17.994Z,10.92
2022-09-06T17:17:03.452Z,10.95
2022-09-06T17:19:34.493Z,10.94
2022-09-06T17:22:01.500Z,10.90
2022-09-06T17:24:28.631Z,10.84
2022-09-06T17:26:55.747Z,10.79
2022-09-06T17:29:22.901Z,10.79
2022-09-06T17:31:49.891Z,10.78
2022-09-06T17:34:16.970Z,10.79
2022-09-06T17:36:43.974Z,10.61
2022-09-06T17:39:17.760Z,10.71
2022-09-06T17:41:46.504Z,10.63
2022-09-06T17:44:16.640Z,10.64
2022-09-06T17:47:02.735Z,10.52
2022-09-06T17:49:31.761Z,10.41
2022-09-06T17:51:59.089Z,10.41
2022-09-06T17:54:26.253Z,10.45
2022-09-06T17:56:53.295Z,10.44
2022-09-06T17:59:20.442Z,10.39
2022-09-06T18:01:47.511Z,10.41
2022-09-06T18:04:15.135Z,10.42
2022-09-06T18:06:46.458Z,10.42
2022-09-06T18:09:16.461Z,10.41
2022-09-06T18:11:47.808Z,10.31
2022-09-06T18:14:17.874Z,10.20
2022-09-06T18:16:47.208Z,10.17
2022-09-06T18:19:15.732Z,10.16
2022-09-06T18:21:42.708Z,10.15
2022-09-06T18:24:10.828Z,10.13
2022-09-06T18:26:37.916Z,10.11
2022-09-06T18:29:13.218Z,10.06
2022-09-06T18:31:41.336Z,10.14
2022-09-06T18:34:09.000Z,10.03
2022-09-06T18:36:37.322Z,10.05
2022-09-06T18:39:05.125Z,10.07
2022-09-06T18:41:52.133Z,10.02
2022-09-06T18:44:19.441Z,10.01
2022-09-06T18:46:47.019Z,10.05
2022-09-06T18:49:15.280Z,10.06
2022-09-06T18:51:43.074Z,10.07
2022-09-06T18:54:11.170Z,10.09
2022-09-06T18:56:38.762Z,9.98
2022-09-06T18:59:06.271Z,10.03
2022-09-06T19:01:35.133Z,9.99
2022-09-06T19:04:04.395Z,9.95
2022-09-06T19:06:32.720Z,9.96
2022-09-06T19:09:05.653Z,9.96
2022-09-06T19:11:32.996Z,9.94
2022-09-06T19:14:00.473Z,9.93
2022-09-06T19:16:29.679Z,9.92
2022-09-06T19:19:01.430Z,9.91
2022-09-06T19:21:28.536Z,9.83
2022-09-06T19:24:02.074Z,9.90
2022-09-06T19:26:32.080Z,9.82
2022-09-06T19:29:02.129Z,9.74
2022-09-06T19:31:31.424Z,9.66
2022-09-06T19:33:59.062Z,9.73
2022-09-06T19:36:28.990Z,9.72
2022-09-06T19:39:04.132Z,9.72
2022-09-06T19:41:33.807Z,9.74
2022-09-06T19:44:01.737Z,9.61
2022-09-06T19:46:28.877Z,9.51
2022-09-06T19:48:56.423Z,9.58
2022-09-06T19:51:24.453Z,9.58
2022-09-06T19:53:54.046Z,9.68
2022-09-06T19:56:26.977Z,9.72
2022-09-06T19:58:55.953Z,9.68
2022-09-06T20:01:25.360Z,9.67
2022-09-06T20:03:52.816Z,9.63
2022-09-06T20:06:20.217Z,9.60
2022-09-06T20:08:53.462Z,9.57
2022-09-06T20:11:22.683Z,9.47
2022-09-06T20:13:50.334Z,9.57
2022-09-06T20:16:20.770Z,9.59
2022-09-06T20:18:48.697Z,9.53
2022-09-06T20:21:17.879Z,9.56
2022-09-06T20:23:53.641Z,9.54
2022-09-06T20:26:23.888Z,9.44
2022-09-06T20:28:56.042Z,9.39
2022-09-06T20:31:23.815Z,9.50
2022-09-06T20:33:50.919Z,9.51
2022-09-06T20:36:19.288Z,9.55
2022-09-06T20:38:47.892Z,9.44
2022-09-06T20:41:14.847Z,9.44
2022-09-06T20:43:42.682Z,9.34
2022-09-06T20:46:15.393Z,9.25
2022-09-06T20:48:44.881Z,9.33
2022-09-06T20:51:15.969Z,9.23
2022-09-06T20:53:43.055Z,9.26
2022-09-06T20:56:13.121Z,9.34
2022-09-06T20:58:40.890Z,9.33
2022-09-06T21:01:17.063Z,9.33
2022-09-06T21:03:44.181Z,9.35
2022-09-06T21:06:12.625Z,9.26
2022-09-06T21:08:42.821Z,9.28
2022-09-06T21:11:10.499Z,9.20
2022-09-06T21:13:37.942Z,9.20
2022-09-06T21:16:06.373Z,9.24
2022-09-06T21:18:34.600Z,9.28
2022-09-06T21:21:02.661Z,9.24
2022-09-06T21:23:32.915Z,9.24
2022-09-06T21:26:02.223Z,9.26
2022-09-06T21:28:31.690Z,9.32
2022-09-06T21:31:08.676Z,9.29
2022-09-06T21:33:37.847Z,9.31
2022-09-06T21:36:10.265Z,9.27
2022-09-06T21:38:42.406Z,9.25
2022-09-06T21:41:10.887Z,9.10
2022-09-06T21:43:38.073Z,8.88
2022-09-06T21:46:18.398Z,8.96
2022-09-06T21:48:47.596Z,8.92
2022-09-06T21:51:16.666Z,8.79
2022-09-06T21:53:45.798Z,8.85
2022-09-06T21:56:13.676Z,8.79
2022-09-06T21:58:40.934Z,8.78
2022-09-06T22:01:08.357Z,8.83
2022-09-06T22:03:37.164Z,8.76
2022-09-06T22:06:13.489Z,8.78
2022-09-06T22:08:43.279Z,8.79
2022-09-06T22:11:22.610Z,8.74
2022-09-06T22:13:51.111Z,8.73
2022-09-06T22:16:20.912Z,8.68
2022-09-06T22:18:51.656Z,8.74
2022-09-06T22:21:21.311Z,8.75
2022-09-06T22:23:56.821Z,8.76
2022-09-06T22:26:25.246Z,8.78
2022-09-06T22:29:00.582Z,8.80
2022-09-06T22:31:29.927Z,8.80
2022-09-06T22:33:57.594Z,8.74
2022-09-06T22:36:25.631Z,8.71
2022-09-06T22:38:57.360Z,8.54
2022-09-06T22:41:25.817Z,8.52
2022-09-06T22:43:53.275Z,8.59
2022-09-06T22:46:20.889Z,8.62
2022-09-06T22:48:48.018Z,8.61
2022-09-06T22:51:15.089Z,8.50
2022-09-06T22:53:42.121Z,8.55
2022-09-06T22:56:09.141Z,8.40
2022-09-06T22:58:36.229Z,8.49
2022-09-06T23:01:11.991Z,8.40
2022-09-06T23:03:39.617Z,8.44
2022-09-06T23:06:06.966Z,8.44
2022-09-06T23:08:35.960Z,8.45
2022-09-06T23:11:20.948Z,8.39
2022-09-06T23:13:48.048Z,8.39
2022-09-06T23:16:18.405Z,8.36
2022-09-06T23:18:46.617Z,8.25
2022-09-06T23:21:15.948Z,8.22
2022-09-06T23:23:43.475Z,8.21
2022-09-06T23:26:13.132Z,8.25
2022-09-06T23:28:40.308Z,8.32
2022-09-06T23:31:10.649Z,8.36
2022-09-06T23:33:38.733Z,8.39
2022-09-06T23:36:07.721Z,8.39
2022-09-06T23:38:36.050Z,8.40
2022-09-06T23:41:03.821Z,8.38
2022-09-06T23:43:31.240Z,8.33
2022-09-06T23:45:58.733Z,8.39
2022-09-06T23:48:25.937Z,8.38
2022-09-06T23:50:53.378Z,8.34
2022-09-06T23:53:20.553Z,8.37
2022-09-06T23:55:47.498Z,8.33
2022-09-06T23:58:14.731Z,8.33
